Time;durP1;ratioP1;P1;durP2;ratioP2;P2;SDS_P1;SDS_P2;PMS_P1;PMS_P2;Temp;Humidity;BMP_temperature;BMP_pressure;BME280_temperature;BME280_humidity;BME280_pressure;Samples;Min_cycle;Max_cycle;Signal;HPM_P1;HPM_P2
2023/09/26 00:01:02;;;;;;;12.85;9.45;;;;;;;17.56;74.12;101123.50;5033999;27;96880;-73
2023/09/26 00:03:28;;;;;;;16.02;9.32;;;;;;;17.58;73.92;101125.16;5050172;27;97878;-75
2023/09/26 00:05:55;;;;;;;13.82;8.68;;;;;;;17.56;74.13;101121.69;5049946;27;98513;-76
2023/09/26 00:08:20;;;;;;;10.45;8.65;;;;;;;17.39;74.15;101104.00;5029348;27;96791;-75
2023/09/26 00:10:46;;;;;;;10.70;8.82;;;;;;;17.54;74.14;101136.88;5032681;27;97029;-75
2023/09/26 00:13:13;;;;;;;10.38;8.15;;;;;;;17.44;73.80;101111.69;5029881;27;97897;-75
2023/09/26 00:15:38;;;;;;;13.70;9.07;;;;;;;17.51;74.02;101129.06;5029571;27;97893;-76
2023/09/26 00:18:05;;;;;;;14.23;9.18;;;;;;;17.50;74.06;101131.78;5030030;28;96975;-75
2023/09/26 00:20:32;;;;;;;12.35;8.52;;;;;;;17.41;74.22;101125.13;5027287;27;97166;-75
2023/09/26 00:22:58;;;;;;;17.65;8.20;;;;;;;17.42;74.16;101126.84;5029905;27;98010;-75
2023/09/26 00:25:24;;;;;;;10.48;8.32;;;;;;;17.50;74.04;101129.97;5040273;27;101798;-76
2023/09/26 00:27:50;;;;;;;11.25;8.65;;;;;;;17.35;74.41;101115.69;5050077;27;97040;-76
2023/09/26 00:30:17;;;;;;;14.00;8.77;;;;;;;17.36;73.87;101117.38;5032878;27;96795;-75
2023/09/26 00:32:43;;;;;;;11.13;8.95;;;;;;;17.47;74.18;101131.94;5027995;28;101169;-75
2023/09/26 00:35:11;;;;;;;10.98;7.88;;;;;;;17.49;73.93;101130.06;5047224;27;97848;-76
2023/09/26 00:37:38;;;;;;;12.43;8.88;;;;;;;17.46;73.68;101131.06;5049687;27;97086;-75
2023/09/26 00:40:06;;;;;;;13.88;11.25;;;;;;;17.47;73.82;101134.59;5032496;27;96914;-75
2023/09/26 00:42:31;;;;;;;13.90;12.45;;;;;;;17.46;74.05;101130.22;5051675;27;98009;-75
2023/09/26 00:44:57;;;;;;;9.73;8.73;;;;;;;17.33;74.44;101125.50;5052366;27;99804;-75
2023/09/26 00:47:22;;;;;;;11.52;8.55;;;;;;;17.37;74.52;101128.88;5036242;27;97493;-76
2023/09/26 00:49:48;;;;;;;10.27;9.07;;;;;;;17.09;74.97;101119.59;5051304;27;96961;-73
2023/09/26 00:52:14;;;;;;;10.68;8.35;;;;;;;17.05;75.14;101103.94;5035932;27;97971;-76
2023/09/26 00:54:39;;;;;;;13.07;8.73;;;;;;;17.15;74.96;101116.66;5043187;27;100872;-76
2023/09/26 00:57:05;;;;;;;12.27;8.85;;;;;;;17.11;75.18;101111.59;5031919;27;97953;-75
2023/09/26 00:59:31;;;;;;;12.88;8.65;;;;;;;17.06;75.07;101100.34;5019038;27;97325;-75
2023/09/26 01:01:57;;;;;;;13.20;9.30;;;;;;;17.16;75.21;101121.03;5052950;27;97918;-75
2023/09/26 01:04:23;;;;;;;17.33;9.55;;;;;;;17.12;75.03;101124.75;5052225;27;101055;-76
2023/09/26 01:06:49;;;;;;;10.95;8.60;;;;;;;17.19;75.11;101120.91;5032935;28;97482;-75
2023/09/26 01:09:15;;;;;;;10.27;8.50;;;;;;;17.18;74.68;101113.84;5013243;28;97187;-76
2023/09/26 01:11:40;;;;;;;11.35;9.18;;;;;;;17.14;75.00;101114.94;5031107;28;101210;-75
2023/09/26 01:14:06;;;;;;;13.48;10.38;;;;;;;17.08;74.43;101104.63;5048452;27;97803;-75
2023/09/26 01:16:32;;;;;;;11.60;10.43;;;;;;;17.20;74.62;101113.78;5052910;27;97232;-73
2023/09/26 01:18:58;;;;;;;15.20;13.52;;;;;;;17.18;74.50;101107.69;5052379;27;96887;-75
2023/09/26 01:21:23;;;;;;;14.95;13.25;;;;;;;17.15;74.50;101103.38;5051273;27;101625;-75
2023/09/26 01:23:56;;;;;;;20.63;18.50;;;;;;;17.18;74.65;101110.34;5015280;28;100047;-76
2023/09/26 01:26:23;;;;;;;20.58;17.75;;;;;;;17.16;74.41;101102.47;5034131;27;96873;-76
2023/09/26 01:28:48;;;;;;;14.95;13.65;;;;;;;17.15;74.41;101097.22;5052429;27;96827;-75
2023/09/26 01:31:14;;;;;;;12.18;10.98;;;;;;;17.14;74.66;101107.00;5052312;27;98212;-75
2023/09/26 01:33:40;;;;;;;15.65;11.38;;;;;;;16.93;74.78;101077.06;5017962;27;101063;-75
2023/09/26 01:36:06;;;;;;;13.20;11.77;;;;;;;17.06;74.63;101097.69;5052643;27;96822;-75
2023/09/26 01:38:31;;;;;;;17.63;16.00;;;;;;;17.08;74.73;101103.78;5035579;27;97044;-75
2023/09/26 01:40:57;;;;;;;19.15;17.35;;;;;;;17.11;74.72;101101.84;5031527;28;100012;-74
2023/09/26 01:43:22;;;;;;;14.82;13.43;;;;;;;17.08;74.76;101103.78;5021964;27;101136;-75
2023/09/26 01:45:48;;;;;;;15.77;14.35;;;;;;;17.01;74.59;101083.78;5053035;27;96921;-75
2023/09/26 01:48:13;;;;;;;17.50;15.57;;;;;;;17.04;74.87;101091.59;5052408;27;96946;-75
2023/09/26 01:50:39;;;;;;;16.33;14.60;;;;;;;17.07;74.68;101102.03;5034390;27;98700;-75
2023/09/26 01:53:08;;;;;;;15.45;13.85;;;;;;;17.03;74.65;101096.03;5014939;28;101501;-75
2023/09/26 01:55:34;;;;;;;20.27;18.38;;;;;;;17.05;74.50;101096.84;5035058;27;97294;-75
2023/09/26 01:58:00;;;;;;;11.68;9.27;;;;;;;17.04;74.76;101103.06;5034985;27;97261;-75
2023/09/26 02:00:25;;;;;;;11.48;8.68;;;;;;;16.94;74.71;101077.94;5034377;27;101024;-75
2023/09/26 02:02:51;;;;;;;12.00;8.68;;;;;;;16.92;74.76;101077.13;5053776;27;98101;-75
2023/09/26 02:05:18;;;;;;;9.90;8.82;;;;;;;16.95;74.66;101093.75;5016393;27;97382;-75
2023/09/26 02:07:45;;;;;;;14.13;9.30;;;;;;;16.85;75.05;101067.78;5014537;27;97206;-75
2023/09/26 02:10:14;;;;;;;11.75;9.30;;;;;;;16.77;75.55;101092.00;5012999;27;101802;-75
2023/09/26 02:12:49;;;;;;;11.25;9.15;;;;;;;16.74;75.35;101078.84;5035048;27;98135;-75
2023/09/26 02:15:15;;;;;;;11.00;8.55;;;;;;;16.87;75.04;101085.31;5042341;27;96780;-76
2023/09/26 02:17:42;;;;;;;10.88;9.07;;;;;;;16.74;75.30;101062.94;5051710;27;97142;-75
2023/09/26 02:20:14;;;;;;;11.10;8.57;;;;;;;16.84;75.14;101087.25;5030536;28;97877;-75
2023/09/26 02:22:45;;;;;;;12.98;8.82;;;;;;;16.74;75.50;101063.78;5033807;27;101541;-75
2023/09/26 02:25:12;;;;;;;12.55;9.18;;;;;;;16.84;74.72;101085.47;5030885;28;96704;-75
2023/09/26 02:27:38;;;;;;;14.75;9.85;;;;;;;16.74;75.06;101066.44;5032275;27;97430;-75
2023/09/26 02:30:05;;;;;;;12.20;9.07;;;;;;;16.81;75.06;101085.59;5051319;27;101211;-75
2023/09/26 02:32:34;;;;;;;11.55;9.05;;;;;;;16.84;75.10;101089.91;5033729;27;101442;-75
2023/09/26 02:35:02;;;;;;;11.40;9.20;;;;;;;16.83;75.09;101080.22;5050792;27;96788;-75
2023/09/26 02:37:27;;;;;;;13.13;8.95;;;;;;;16.79;75.07;101079.53;5051282;27;98415;-75
2023/09/26 02:39:53;;;;;;;13.77;8.40;;;;;;;16.75;75.10;101073.50;5033400;27;99754;-75
2023/09/26 02:42:18;;;;;;;12.27;9.32;;;;;;;16.81;75.28;101080.28;5051512;27;97279;-75
2023/09/26 02:44:44;;;;;;;13.00;8.30;;;;;;;16.72;75.32;101081.56;5051088;27;96763;-75
2023/09/26 02:47:09;;;;;;;14.15;9.25;;;;;;;16.75;75.61;101076.13;5051200;27;97182;-77
2023/09/26 02:49:35;;;;;;;13.50;8.15;;;;;;;16.62;75.50;101050.28;5047910;27;100226;-75
2023/09/26 02:52:01;;;;;;;11.18;8.63;;;;;;;16.73;75.27;101063.88;5050145;27;97879;-75
2023/09/26 02:54:27;;;;;;;11.85;9.27;;;;;;;16.77;75.10;101070.78;5030697;28;97178;-74
2023/09/26 02:56:52;;;;;;;9.98;8.40;;;;;;;16.79;75.08;101079.53;5030493;27;96989;-75
2023/09/26 02:59:18;;;;;;;12.77;8.90;;;;;;;16.80;74.83;101080.38;5033283;27;101670;-75
2023/09/26 03:01:43;;;;;;;12.27;8.48;;;;;;;16.78;74.90;101083.09;5033918;27;98130;-75
2023/09/26 03:04:09;;;;;;;12.10;9.13;;;;;;;16.59;75.06;101048.63;5033550;27;96758;-75
2023/09/26 03:06:34;;;;;;;9.45;8.23;;;;;;;16.72;74.72;101076.25;5033659;27;96904;-76
2023/09/26 03:09:00;;;;;;;14.63;9.57;;;;;;;16.72;75.21;101075.41;5050453;27;97467;-76
2023/09/26 03:11:25;;;;;;;10.77;8.77;;;;;;;16.73;74.95;101082.44;5033876;27;99544;-75
2023/09/26 03:13:51;;;;;;;10.10;8.88;;;;;;;16.72;74.90;101073.59;5016041;27;97021;-76
2023/09/26 03:16:18;;;;;;;10.77;9.05;;;;;;;16.52;75.06;101044.53;5034801;27;97816;-75
2023/09/26 03:18:45;;;;;;;11.93;8.27;;;;;;;16.67;75.09;101074.78;5049748;27;98053;-75
2023/09/26 03:21:11;;;;;;;10.18;8.55;;;;;;;16.59;75.13;101056.59;5032933;27;101600;-75
2023/09/26 03:23:37;;;;;;;11.20;8.73;;;;;;;16.51;74.53;101048.97;5051614;27;96766;-75
2023/09/26 03:26:10;;;;;;;11.55;8.68;;;;;;;16.54;74.75;101061.22;5050716;27;97271;-75
2023/09/26 03:28:35;;;;;;;9.25;8.23;;;;;;;16.61;75.27;101080.34;5029741;27;101205;-75
2023/09/26 03:31:03;;;;;;;14.38;9.90;;;;;;;16.63;75.20;101086.44;5048025;27;101567;-75
2023/09/26 03:33:30;;;;;;;11.95;9.55;;;;;;;16.65;74.92;101089.91;5033450;27;98299;-76
2023/09/26 03:35:59;;;;;;;12.38;8.95;;;;;;;16.65;74.89;101088.09;5013266;28;97289;-76
2023/09/26 03:38:25;;;;;;;12.05;8.95;;;;;;;16.64;75.15;101089.03;5015151;27;101501;-76
2023/09/26 03:40:57;;;;;;;9.82;8.43;;;;;;;16.65;74.80;101093.41;5013564;28;101557;-76
2023/09/26 03:43:25;;;;;;;12.05;9.27;;;;;;;16.63;74.66;101089.09;5048082;27;96901;-75
2023/09/26 03:45:50;;;;;;;11.90;9.48;;;;;;;16.57;74.92;101084.94;5050553;27;96786;-75
2023/09/26 03:48:16;;;;;;;11.50;8.13;;;;;;;16.52;74.91;101092.25;5049540;27;97469;-75
2023/09/26 03:50:42;;;;;;;10.77;9.32;;;;;;;16.56;74.95;101088.53;5049988;27;97604;-75
2023/09/26 03:53:08;;;;;;;14.02;9.65;;;;;;;16.45;74.66;101067.81;5033662;27;96794;-75
2023/09/26 03:55:33;;;;;;;14.45;10.57;;;;;;;16.54;74.65;101085.09;5033703;27;96944;-75
2023/09/26 03:57:59;;;;;;;13.73;9.63;;;;;;;16.55;75.07;101080.63;5012679;27;101240;-76
2023/09/26 04:00:26;;;;;;;17.70;9.52;;;;;;;16.57;74.36;101081.44;5032881;27;97977;-75
2023/09/26 04:02:54;;;;;;;11.50;9.07;;;;;;;16.51;74.66;101077.28;5041082;27;97367;-76
2023/09/26 04:05:20;;;;;;;15.25;10.20;;;;;;;16.50;74.29;101081.72;5032120;27;96974;-75
2023/09/26 04:07:45;;;;;;;13.30;9.45;;;;;;;16.52;74.53;101071.03;5049921;27;97427;-76
2023/09/26 04:10:11;;;;;;;10.88;9.45;;;;;;;16.46;74.64;101069.56;5029257;27;100865;-75
2023/09/26 04:12:36;;;;;;;14.35;9.32;;;;;;;16.43;74.62;101076.78;5033490;27;97051;-75
2023/09/26 04:15:02;;;;;;;16.25;10.55;;;;;;;16.40;74.89;101069.81;5032697;27;97036;-75
2023/09/26 04:17:29;;;;;;;15.77;10.70;;;;;;;16.41;75.10;101071.56;5034888;27;97696;-75
2023/09/26 04:19:54;;;;;;;15.50;11.65;;;;;;;16.40;75.10;101079.56;5052816;27;97335;-75
2023/09/26 04:22:20;;;;;;;16.25;9.68;;;;;;;16.45;75.04;101082.88;5054005;27;97505;-75
2023/09/26 04:24:46;;;;;;;17.52;11.85;;;;;;;16.50;74.53;101083.53;5030150;27;97398;-75
2023/09/26 04:27:11;;;;;;;22.90;11.60;;;;;;;16.45;75.07;101082.88;5020651;27;101194;-75
2023/09/26 04:29:37;;;;;;;23.25;11.65;;;;;;;16.48;74.87;101083.56;5051849;27;97201;-76
2023/09/26 04:32:03;;;;;;;16.88;11.20;;;;;;;16.37;75.55;101066.47;5033441;27;96750;-75
2023/09/26 04:34:29;;;;;;;21.48;11.00;;;;;;;16.39;75.37;101083.16;5054530;27;96667;-75
2023/09/26 04:36:55;;;;;;;16.30;11.50;;;;;;;16.43;75.11;101090.88;5035433;27;98427;-75
2023/09/26 04:39:20;;;;;;;13.70;11.20;;;;;;;16.44;75.13;101083.81;5052481;27;98034;-76
2023/09/26 04:41:46;;;;;;;16.08;11.60;;;;;;;16.44;75.08;101087.31;5053094;27;97119;-76
2023/09/26 04:44:11;;;;;;;17.85;11.88;;;;;;;16.49;75.07;101093.28;5036315;27;97514;-75
2023/09/26 04:46:37;;;;;;;17.92;11.40;;;;;;;16.46;75.00;101088.13;5052643;27;97563;-76
2023/09/26 04:49:03;;;;;;;21.88;12.30;;;;;;;16.37;74.93;101074.41;5035616;27;97595;-76
2023/09/26 04:51:28;;;;;;;17.33;12.25;;;;;;;16.47;75.44;101103.06;5049415;27;97188;-75
2023/09/26 04:53:56;;;;;;;41.05;12.38;;;;;;;16.31;76.09;101099.38;5054643;27;96996;-76
2023/09/26 04:56:21;;;;;;;22.15;12.35;;;;;;;16.41;75.77;101111.31;5032106;27;100739;-76
2023/09/26 04:58:47;;;;;;;21.42;13.27;;;;;;;16.45;75.72;101102.28;5047605;27;98187;-76
2023/09/26 05:01:14;;;;;;;18.70;12.90;;;;;;;16.38;75.61;101077.00;5023445;28;97247;-85
2023/09/26 05:04:01;;;;;;;13.05;11.07;;;;;;;16.40;75.35;101076.91;5002756;27;96949;-83
2023/09/26 05:06:29;;;;;;;17.90;12.10;;;;;;;16.46;75.35;101085.47;5047859;27;101922;-87
2023/09/26 05:08:54;;;;;;;17.95;12.85;;;;;;;16.51;75.32;101085.22;5037761;27;101555;-87
2023/09/26 05:11:20;;;;;;;25.67;12.70;;;;;;;16.43;75.24;101071.47;5042841;27;97343;-86
2023/09/26 05:13:45;;;;;;;16.88;12.18;;;;;;;16.49;75.16;101077.38;5048481;27;97338;-78
2023/09/26 05:16:13;;;;;;;22.73;11.95;;;;;;;16.53;75.83;101102.78;5052313;27;97359;-77
2023/09/26 05:18:38;;;;;;;23.75;13.30;;;;;;;16.55;75.35;101092.13;5050409;27;99577;-82
2023/09/26 05:21:08;;;;;;;14.80;11.80;;;;;;;16.62;75.36;101088.25;5024618;27;96866;-82
2023/09/26 05:23:34;;;;;;;28.17;11.73;;;;;;;16.68;75.09;101093.25;5018440;27;96886;-85
2023/09/26 05:26:08;;;;;;;14.77;11.48;;;;;;;16.78;75.04;101099.00;5017743;27;101285;-76
2023/09/26 05:28:33;;;;;;;17.30;11.90;;;;;;;16.71;74.45;101073.69;5039758;27;97574;-77
2023/09/26 05:30:59;;;;;;;16.17;12.15;;;;;;;16.76;74.68;101077.03;5048226;27;96791;-78
2023/09/26 05:33:24;;;;;;;15.65;12.02;;;;;;;16.95;74.68;101092.88;5046697;27;97239;-78
2023/09/26 05:35:50;;;;;;;16.05;12.13;;;;;;;16.85;74.36;101089.84;5027704;27;99339;-78
2023/09/26 05:38:15;;;;;;;16.10;10.85;;;;;;;17.05;73.91;101090.69;5037562;27;99536;-77
2023/09/26 05:40:42;;;;;;;20.02;11.98;;;;;;;17.02;74.08;101086.38;5051091;27;97404;-82
2023/09/26 05:43:56;;;;;;;15.38;12.18;;;;;;;16.92;73.83;101055.91;5042688;27;96782;-82
2023/09/26 05:46:24;;;;;;;17.10;10.82;;;;;;;17.11;73.37;101074.47;5050610;27;98828;-81
2023/09/26 05:52:22;;;;;;;25.77;11.15;;;;;;;16.69;74.21;101071.09;5043784;27;97382;-81
2023/09/26 05:54:50;;;;;;;14.90;11.35;;;;;;;16.78;74.21;101084.88;5044082;27;97158;-80
2023/09/26 05:57:22;;;;;;;37.42;12.18;;;;;;;16.67;74.63;101080.09;5015030;27;101149;-80
2023/09/26 06:00:12;;;;;;;13.75;10.80;;;;;;;16.70;74.09;101078.13;5025572;27;98585;-81
2023/09/26 06:02:53;;;;;;;32.90;11.30;;;;;;;16.85;74.41;101107.53;5027738;27;96956;-81
2023/09/26 06:05:20;;;;;;;42.20;12.13;;;;;;;16.65;74.78;101080.16;5016195;27;96937;-81
2023/09/26 06:07:51;;;;;;;20.50;10.48;;;;;;;16.72;74.62;101076.25;5011385;27;98273;-81
2023/09/26 06:10:19;;;;;;;11.93;10.60;;;;;;;16.78;74.15;101069.84;5029970;27;98227;-81
2023/09/26 06:12:46;;;;;;;13.57;10.85;;;;;;;17.07;74.00;101088.78;5025180;27;97252;-85
2023/09/26 06:15:12;;;;;;;13.18;10.57;;;;;;;17.14;73.78;101092.88;5050728;27;96951;-85
2023/09/26 06:17:40;;;;;;;14.60;12.32;;;;;;;17.25;73.56;101097.63;5042180;27;97848;-86
2023/09/26 06:20:09;;;;;;;16.92;12.25;;;;;;;17.33;73.39;101098.09;5027324;27;97994;-86
2023/09/26 06:22:35;;;;;;;18.73;12.23;;;;;;;17.31;73.32;101100.00;5045728;27;96907;-85
2023/09/26 06:25:02;;;;;;;15.68;12.07;;;;;;;17.30;73.16;101092.97;5013483;28;96792;-86
2023/09/26 06:27:27;;;;;;;16.08;12.52;;;;;;;17.35;73.55;101105.06;5047022;27;98164;-75
2023/09/26 06:29:53;;;;;;;20.70;13.70;;;;;;;17.09;73.53;101086.94;5031441;27;101078;-77
2023/09/26 06:32:18;;;;;;;17.40;13.30;;;;;;;17.05;74.41;101096.84;5028175;27;96924;-75
2023/09/26 06:34:47;;;;;;;20.52;13.85;;;;;;;17.12;74.11;101084.97;5035096;27;97025;-86
2023/09/26 06:37:12;;;;;;;22.08;13.90;;;;;;;16.78;74.97;101072.47;5039682;27;97785;-84
2023/09/26 06:39:38;;;;;;;17.27;14.38;;;;;;;17.05;75.07;101093.31;5048040;27;97947;-84
2023/09/26 06:42:03;;;;;;;18.38;13.70;;;;;;;17.15;75.32;101097.22;5016831;27;96838;-84
2023/09/26 06:44:29;;;;;;;14.95;12.75;;;;;;;17.29;74.87;101080.63;5029785;27;97073;-83
2023/09/26 06:46:54;;;;;;;21.63;15.50;;;;;;;17.32;74.61;101084.00;5050609;27;97475;-84
2023/09/26 06:49:20;;;;;;;20.65;14.20;;;;;;;17.54;74.38;101109.44;5029999;27;97580;-86
2023/09/26 06:51:46;;;;;;;19.88;14.88;;;;;;;17.60;73.91;101098.53;5029268;27;97292;-84
2023/09/26 06:54:11;;;;;;;20.88;15.10;;;;;;;17.59;74.19;101104.75;5029780;27;98079;-84
2023/09/26 06:56:37;;;;;;;23.65;15.80;;;;;;;17.81;73.58;101104.56;5010318;27;101673;-83
2023/09/26 06:59:03;;;;;;;22.92;15.48;;;;;;;17.60;73.09;101045.44;5025741;28;97446;-85
2023/09/26 07:01:28;;;;;;;24.63;16.33;;;;;;;18.02;72.79;101111.41;5031904;27;96743;-83
2023/09/26 07:03:53;;;;;;;20.48;15.57;;;;;;;18.21;72.28;101107.75;5050369;27;97054;-83
2023/09/26 07:06:19;;;;;;;21.45;15.27;;;;;;;18.00;72.79;101080.53;5013452;27;101535;-82
2023/09/26 07:08:45;;;;;;;20.05;16.08;;;;;;;18.21;72.06;101082.06;5031007;27;101262;-84
2023/09/26 07:11:10;;;;;;;24.30;17.50;;;;;;;18.36;72.06;101093.66;5032358;27;96849;-83
2023/09/26 07:13:36;;;;;;;24.27;16.20;;;;;;;18.76;70.79;101091.47;5041874;27;96891;-82
2023/09/26 07:16:04;;;;;;;22.75;15.48;;;;;;;19.05;70.14;101102.28;5031022;27;101774;-78
2023/09/26 07:18:35;;;;;;;27.48;18.42;;;;;;;19.09;69.53;101079.88;5027674;27;100388;-78
2023/09/26 07:21:05;;;;;;;23.58;18.45;;;;;;;18.95;70.09;101101.97;5011936;27;97109;-78
2023/09/26 07:23:34;;;;;;;29.48;20.48;;;;;;;18.55;71.23;101089.03;5036540;27;96841;-83
2023/09/26 07:26:12;;;;;;;25.60;18.52;;;;;;;18.74;71.27;101102.22;5027144;27;101756;-83
2023/09/26 07:28:41;;;;;;;23.00;18.13;;;;;;;18.84;70.94;101099.88;5031834;27;101118;-83
2023/09/26 07:31:09;;;;;;;28.55;17.77;;;;;;;18.79;70.79;101085.97;5009281;28;97404;-84
2023/09/26 07:33:35;;;;;;;28.58;18.08;;;;;;;19.04;70.87;101105.91;5042351;27;96879;-83
2023/09/26 07:36:00;;;;;;;37.72;19.58;;;;;;;18.68;71.44;101083.06;5043744;27;98643;-83
2023/09/26 07:38:26;;;;;;;36.90;20.17;;;;;;;18.69;72.31;101100.72;5019175;27;100994;-82
2023/09/26 07:40:52;;;;;;;31.58;20.08;;;;;;;18.68;72.45;101093.69;5027985;28;97275;-83
2023/09/26 07:43:17;;;;;;;24.77;21.13;;;;;;;18.90;71.88;101104.00;5049794;27;96939;-82
2023/09/26 07:45:43;;;;;;;37.30;22.67;;;;;;;18.82;72.11;101098.25;5028257;27;98330;-83
2023/09/26 07:48:09;;;;;;;31.77;22.85;;;;;;;18.78;72.49;101108.22;5026237;27;100680;-83
2023/09/26 07:50:34;;;;;;;33.53;24.70;;;;;;;18.75;72.68;101108.38;5030121;27;97647;-82
2023/09/26 07:53:01;;;;;;;34.38;22.55;;;;;;;18.78;72.47;101108.22;5033651;27;96817;-82
2023/09/26 07:55:28;;;;;;;30.42;23.38;;;;;;;18.58;72.76;101088.00;5013753;27;101110;-82
2023/09/26 07:57:53;;;;;;;37.40;24.20;;;;;;;18.58;72.87;101096.00;5019530;27;101421;-83
2023/09/26 08:00:19;;;;;;;36.03;23.27;;;;;;;18.60;73.38;101103.91;5041675;27;97169;-85
2023/09/26 08:02:45;;;;;;;32.67;23.02;;;;;;;18.65;72.99;101096.53;5054212;27;96815;-81
2023/09/26 08:05:11;;;;;;;34.60;25.77;;;;;;;18.64;73.18;101100.13;5033063;27;101250;-76
2023/09/26 08:07:38;;;;;;;36.03;24.40;;;;;;;18.45;73.77;101087.84;5052210;27;97320;-76
2023/09/26 08:10:04;;;;;;;39.05;23.80;;;;;;;18.60;73.85;101086.13;5036333;27;96907;-77
2023/09/26 08:12:30;;;;;;;53.30;28.85;;;;;;;18.47;74.01;101093.94;5054271;27;97107;-76
2023/09/26 08:14:57;;;;;;;36.33;25.50;;;;;;;18.44;75.00;101112.72;5053027;27;97553;-77
2023/09/26 08:17:23;;;;;;;35.03;23.17;;;;;;;18.66;74.39;101115.03;5052802;27;97887;-77
2023/09/26 08:19:48;;;;;;;32.47;24.48;;;;;;;18.76;74.14;101107.44;5047856;27;96712;-77
2023/09/26 08:22:14;;;;;;;36.40;24.48;;;;;;;18.81;73.92;101104.53;5032259;27;97183;-77
2023/09/26 08:24:39;;;;;;;35.17;25.50;;;;;;;18.65;74.26;101104.50;5053079;27;97667;-76
2023/09/26 08:27:06;;;;;;;39.25;27.00;;;;;;;18.37;75.05;101102.50;5052749;27;97395;-84
2023/09/26 08:29:31;;;;;;;42.85;26.77;;;;;;;18.27;75.82;101113.63;5034360;27;97151;-87
2023/09/26 08:31:58;;;;;;;37.63;26.80;;;;;;;18.32;75.15;101098.28;5054032;27;97411;-88
2023/09/26 08:34:24;;;;;;;35.45;24.48;;;;;;;18.53;74.98;101112.22;5033729;28;101227;-88
2023/09/26 08:36:49;;;;;;;44.15;26.88;;;;;;;18.69;74.35;101108.69;5036400;27;97105;-88
2023/09/26 08:39:15;;;;;;;34.20;22.23;;;;;;;18.90;74.38;101112.84;5036144;27;96909;-87
2023/09/26 08:41:43;;;;;;;38.30;26.00;;;;;;;18.97;73.99;101103.59;5008667;28;96876;-89
2023/09/26 08:44:10;;;;;;;39.03;26.38;;;;;;;19.02;73.74;101107.78;5050475;27;97379;-89
2023/09/26 08:46:37;;;;;;;33.08;24.88;;;;;;;18.88;74.11;101121.84;5051877;27;97833;-90
2023/09/26 08:49:03;;;;;;;38.97;24.48;;;;;;;18.75;74.51;101109.25;5036963;27;97460;-90
2023/09/26 08:51:28;;;;;;;35.67;25.33;;;;;;;18.66;74.77;101123.03;5053649;27;97510;-90
2023/09/26 08:53:54;;;;;;;35.42;25.70;;;;;;;18.57;75.09;101106.72;5051515;27;98500;-88
2023/09/26 08:56:20;;;;;;;35.90;24.95;;;;;;;18.73;74.83;101118.22;5037030;27;97067;-91
2023/09/26 08:58:48;;;;;;;38.03;26.48;;;;;;;18.60;74.78;101101.25;5033233;27;96800;-90
2023/09/26 09:01:13;;;;;;;36.60;24.40;;;;;;;18.76;74.43;101126.94;5027224;28;96789;-90
2023/09/26 09:03:39;;;;;;;34.75;25.35;;;;;;;18.63;74.97;101123.19;5040649;27;98569;-90
2023/09/26 09:06:04;;;;;;;36.20;25.70;;;;;;;18.69;74.55;101112.22;5053534;27;98201;-90
2023/09/26 09:08:30;;;;;;;34.67;25.30;;;;;;;18.70;74.40;101105.97;5053774;27;96701;-91
2023/09/26 09:10:55;;;;;;;35.28;25.40;;;;;;;18.73;74.03;101086.31;5033181;27;97093;-90
2023/09/26 09:13:28;;;;;;;37.65;25.75;;;;;;;18.51;75.23;101107.91;5035810;27;100300;-90
2023/09/26 09:16:14;;;;;;;43.22;27.38;;;;;;;18.69;75.15;101108.69;5048433;27;98514;-91
2023/09/26 09:18:44;;;;;;;36.60;25.33;;;;;;;18.70;75.00;101113.94;5047271;27;96852;-90
2023/09/26 09:21:24;;;;;;;34.43;25.57;;;;;;;18.81;74.94;101116.03;5019028;27;97073;-92
2023/09/26 09:23:51;;;;;;;40.22;26.30;;;;;;;18.82;74.70;101101.81;5032893;27;100815;-91
2023/09/26 09:26:19;;;;;;;35.70;25.58;;;;;;;18.94;74.27;101117.06;5051709;27;98939;-91
2023/09/26 09:28:44;;;;;;;36.60;26.83;;;;;;;18.72;75.04;101114.69;5044982;27;96987;-91
2023/09/26 09:31:13;;;;;;;36.83;26.83;;;;;;;18.55;75.45;101099.66;5016790;27;97449;-87
2023/09/26 09:33:43;;;;;;;42.60;27.10;;;;;;;18.73;75.43;101119.13;5018025;27;101469;-89
2023/09/26 09:36:10;;;;;;;39.63;25.63;;;;;;;18.93;74.83;101090.53;5051197;27;98302;-83
2023/09/26 09:38:36;;;;;;;38.22;25.45;;;;;;;19.14;73.80;101107.94;5016797;27;97268;-82
2023/09/26 09:41:03;;;;;;;33.28;23.10;;;;;;;19.48;73.18;101116.63;5048176;27;97445;-82
2023/09/26 09:43:29;;;;;;;37.05;25.38;;;;;;;19.27;72.85;101089.47;5046469;27;97468;-82
2023/09/26 09:45:57;;;;;;;44.33;26.90;;;;;;;19.43;72.47;101110.69;5031134;27;101536;-82
2023/09/26 09:48:24;;;;;;;47.85;26.55;;;;;;;19.44;72.30;101099.97;5050471;27;97073;-81
2023/09/26 09:50:53;;;;;;;34.40;24.42;;;;;;;19.77;71.40;101100.75;5024272;28;97097;-81
2023/09/26 09:53:21;;;;;;;38.20;24.30;;;;;;;19.88;71.35;101111.63;5046020;27;101596;-81
2023/09/26 09:55:48;;;;;;;34.28;24.13;;;;;;;19.73;71.19;101086.78;5014418;28;101802;-81
2023/09/26 09:58:15;;;;;;;30.75;23.58;;;;;;;19.73;71.44;101099.25;5007847;27;96860;-82
2023/09/26 10:00:41;;;;;;;33.28;23.92;;;;;;;19.83;71.46;101097.72;5022124;27;96792;-79
2023/09/26 10:03:07;;;;;;;28.67;22.15;;;;;;;19.95;71.13;101093.44;5000959;27;101721;-79
2023/09/26 10:05:35;;;;;;;35.47;24.08;;;;;;;20.46;69.57;101093.84;5024799;28;100659;-80
2023/09/26 10:08:03;;;;;;;31.63;21.52;;;;;;;20.30;69.43;101088.59;5032627;27;96993;-81
2023/09/26 10:10:29;;;;;;;35.25;24.25;;;;;;;20.33;69.40;101099.97;5029653;27;96909;-80
2023/09/26 10:12:54;;;;;;;28.67;23.00;;;;;;;20.39;69.26;101076.50;5028089;27;101674;-80
2023/09/26 10:15:20;;;;;;;31.55;23.02;;;;;;;20.58;68.45;101091.28;5025759;27;101125;-82
2023/09/26 10:17:48;;;;;;;30.55;22.65;;;;;;;20.81;67.63;101091.63;5052516;27;97260;-80
2023/09/26 10:20:14;;;;;;;32.65;22.23;;;;;;;20.57;67.91;101070.06;5025510;28;96992;-81
2023/09/26 10:22:42;;;;;;;29.67;22.45;;;;;;;20.75;67.77;101081.34;5046504;27;97987;-80
2023/09/26 10:25:08;;;;;;;31.48;22.88;;;;;;;20.71;67.44;101074.47;5051223;27;97493;-80
2023/09/26 10:27:34;;;;;;;30.98;23.85;;;;;;;21.32;66.10;101086.47;5033725;27;96804;-82
2023/09/26 10:30:03;;;;;;;34.25;23.40;;;;;;;21.40;65.40;101073.47;5038899;27;97196;-80
2023/09/26 10:32:36;;;;;;;41.95;22.73;;;;;;;21.52;65.09;101057.59;5050165;27;97718;-86
2023/09/26 10:35:14;;;;;;;41.92;23.35;;;;;;;21.30;66.05;101085.72;5028487;28;100168;-87
2023/09/26 10:37:48;;;;;;;31.27;22.70;;;;;;;21.67;65.22;101075.22;5049559;27;97161;-85
2023/09/26 10:40:14;;;;;;;28.58;20.95;;;;;;;21.77;65.27;101073.66;5035265;27;96939;-87
2023/09/26 10:42:45;;;;;;;28.75;20.80;;;;;;;21.48;65.12;101052.47;5034663;27;101903;-86
2023/09/26 10:45:11;;;;;;;29.83;22.85;;;;;;;21.33;65.80;101068.66;5013696;27;101776;-84
2023/09/26 10:47:38;;;;;;;32.63;21.73;;;;;;;21.66;64.89;101047.66;5034473;27;97234;-87
2023/09/26 10:50:14;;;;;;;28.63;20.30;;;;;;;21.90;64.22;101050.47;5049880;27;97263;-85
2023/09/26 10:52:46;;;;;;;29.80;21.17;;;;;;;21.84;64.46;101068.72;5050060;27;98069;-87
2023/09/26 10:55:20;;;;;;;30.98;21.70;;;;;;;21.96;64.20;101062.50;5025664;27;97179;-86
2023/09/26 10:57:46;;;;;;;30.20;21.63;;;;;;;21.57;64.91;101053.63;5012722;27;97708;-90
2023/09/26 11:00:13;;;;;;;31.55;22.23;;;;;;;21.60;64.72;101061.44;5052640;27;97572;-88
2023/09/26 11:02:38;;;;;;;28.77;21.13;;;;;;;21.73;64.06;101061.47;5054947;27;97736;-86
2023/09/26 11:05:08;;;;;;;26.73;21.23;;;;;;;21.96;63.63;101057.16;5049636;27;98264;-86
2023/09/26 11:07:37;;;;;;;26.38;20.20;;;;;;;22.45;62.38;101039.50;5047429;27;98519;-83
2023/09/26 11:10:03;;;;;;;26.23;21.45;;;;;;;22.80;62.07;101052.94;5034226;27;97340;-82
2023/09/26 11:12:30;;;;;;;32.85;22.63;;;;;;;22.76;61.63;101063.03;5027471;27;98060;-86